Terminal Aerodrome Forecast
Issued by NWS Charleston, WV

Current Version | Previous Version | Graphics & Text | Print | Product List | Glossary On
Versions: 1 2 3 4 5 6 7 8 9 10 11 12 13 14 15 16 17 18 19 20
000
FTUS41 KRLX 040859 AAA
TAFPKB
TAF AMD
KPKB 040859Z 0409/0506 27006KT P6SM BKN025
     FM041200 27006KT P6SM OVC015
     FM041600 28005KT P6SM BKN025
     FM042200 28005KT P6SM BKN035=

USA.gov is the U.S. government's official web portal to all federal, state and local government web resources and services.